createdAt,value
2022-08-18T00:00:21.308Z,21.91
2022-08-18T00:01:24.400Z,21.86
2022-08-18T00:02:30.354Z,21.84
2022-08-18T00:03:56.401Z,21.77
2022-08-18T00:04:57.099Z,21.63
2022-08-18T00:05:58.856Z,21.55
2022-08-18T00:07:00.420Z,21.60
2022-08-18T00:08:02.002Z,21.59
2022-08-18T00:09:06.945Z,21.52
2022-08-18T00:10:08.758Z,21.49
2022-08-18T00:11:21.180Z,21.41
2022-08-18T00:12:26.419Z,21.38
2022-08-18T00:13:27.989Z,21.35
2022-08-18T00:14:29.550Z,21.31
2022-08-18T00:15:31.039Z,21.22
2022-08-18T00:16:32.636Z,21.16
2022-08-18T00:17:35.041Z,21.14
2022-08-18T00:18:36.594Z,21.09
2022-08-18T00:19:47.753Z,21.13
2022-08-18T00:20:49.897Z,21.06
2022-08-18T00:21:51.708Z,21.02
2022-08-18T00:22:53.852Z,21.02
2022-08-18T00:23:55.375Z,20.99
2022-08-18T00:24:57.841Z,20.97
2022-08-18T00:25:59.485Z,20.97
2022-08-18T00:27:01.263Z,20.95
2022-08-18T00:28:04.547Z,20.94
2022-08-18T00:29:06.083Z,20.93
2022-08-18T00:30:11.721Z,20.94
2022-08-18T00:31:13.361Z,20.89
2022-08-18T00:32:18.574Z,20.83
2022-08-18T00:33:20.080Z,20.84
2022-08-18T00:34:21.624Z,20.81
2022-08-18T00:35:26.119Z,20.82
2022-08-18T00:36:30.771Z,20.79
2022-08-18T00:37:32.334Z,20.78
2022-08-18T00:38:33.882Z,20.78
2022-08-18T00:39:40.665Z,20.81
2022-08-18T00:40:50.207Z,20.76
2022-08-18T00:41:51.742Z,20.71
2022-08-18T00:42:56.065Z,20.67
2022-08-18T00:43:57.879Z,20.65
2022-08-18T00:45:06.768Z,20.62
2022-08-18T00:46:11.768Z,20.61
2022-08-18T00:47:13.330Z,20.59
2022-08-18T00:48:35.162Z,20.57
2022-08-18T00:49:41.073Z,20.54
2022-08-18T00:50:53.947Z,20.59
2022-08-18T00:51:57.079Z,20.60
2022-08-18T00:53:03.350Z,20.59
2022-08-18T00:54:13.411Z,20.57
2022-08-18T00:55:16.753Z,20.56
2022-08-18T00:56:25.573Z,20.54
2022-08-18T00:57:28.763Z,20.54
2022-08-18T00:58:42.495Z,20.60
2022-08-18T00:59:49.595Z,20.55
2022-08-18T01:00:51.844Z,20.50
2022-08-18T01:01:57.865Z,20.45
2022-08-18T01:03:03.736Z,20.46
2022-08-18T01:04:12.329Z,20.44
2022-08-18T01:05:27.147Z,20.45
2022-08-18T01:06:41.462Z,20.45
2022-08-18T01:07:46.475Z,20.48
2022-08-18T01:08:48.072Z,20.45
2022-08-18T01:09:51.572Z,20.47
2022-08-18T01:10:54.530Z,20.45
2022-08-18T01:11:56.406Z,20.44
2022-08-18T01:12:59.086Z,20.40
2022-08-18T01:14:00.681Z,20.42
2022-08-18T01:15:02.655Z,20.41
2022-08-18T01:16:05.257Z,20.40
2022-08-18T01:17:06.836Z,20.39
2022-08-18T01:18:13.788Z,20.33
2022-08-18T01:19:17.317Z,20.31
2022-08-18T01:20:26.986Z,20.32
2022-08-18T01:21:29.899Z,20.31
2022-08-18T01:22:46.419Z,20.32
2022-08-18T01:23:49.751Z,20.39
2022-08-18T01:24:54.711Z,20.39
2022-08-18T01:25:56.396Z,20.38
2022-08-18T01:26:58.117Z,20.34
2022-08-18T01:28:00.753Z,20.35
2022-08-18T01:29:07.958Z,20.37
2022-08-18T01:30:13.396Z,20.33
2022-08-18T01:31:31.016Z,20.27
2022-08-18T01:32:32.709Z,20.25
2022-08-18T01:33:41.486Z,20.21
2022-08-18T01:34:43.794Z,20.21
2022-08-18T01:35:48.381Z,20.20
2022-08-18T01:36:51.062Z,20.18
2022-08-18T01:37:54.355Z,20.17
2022-08-18T01:38:56.356Z,20.15
2022-08-18T01:41:24.658Z,20.16
2022-08-18T01:41:25.705Z,20.12
2022-08-18T01:42:29.750Z,20.12
2022-08-18T01:43:31.307Z,20.12
2022-08-18T01:44:32.940Z,20.17
2022-08-18T01:45:34.484Z,20.19
2022-08-18T01:46:36.366Z,20.16
2022-08-18T01:47:48.203Z,20.11
2022-08-18T01:48:50.825Z,20.09
2022-08-18T01:49:52.374Z,20.10
2022-08-18T01:50:54.287Z,20.06
2022-08-18T01:51:55.917Z,20.02
2022-08-18T01:52:57.417Z,19.96
2022-08-18T01:53:59.491Z,19.93
2022-08-18T01:55:02.211Z,19.95
2022-08-18T01:56:04.882Z,19.94
2022-08-18T01:57:06.555Z,19.90
2022-08-18T01:58:08.101Z,19.89
2022-08-18T01:59:10.739Z,19.88
2022-08-18T02:00:15.627Z,19.84
2022-08-18T02:01:17.258Z,19.83
2022-08-18T02:02:23.228Z,19.84
2022-08-18T02:03:28.225Z,19.90
2022-08-18T02:04:36.558Z,19.92
2022-08-18T02:05:47.519Z,19.87
2022-08-18T02:06:49.094Z,19.82
2022-08-18T02:07:54.193Z,19.75
2022-08-18T02:08:56.082Z,19.76
2022-08-18T02:09:59.224Z,19.78
2022-08-18T02:11:01.008Z,19.79
2022-08-18T02:12:03.317Z,19.80
2022-08-18T02:13:05.458Z,19.81
2022-08-18T02:14:07.001Z,19.81
2022-08-18T02:15:09.406Z,19.82
2022-08-18T02:16:11.078Z,19.82
2022-08-18T02:17:14.413Z,19.84
2022-08-18T02:18:41.524Z,19.86
2022-08-18T02:19:48.335Z,19.91
2022-08-18T02:20:50.155Z,19.90
2022-08-18T02:21:52.765Z,19.90
2022-08-18T02:22:54.520Z,19.89
2022-08-18T02:23:56.246Z,19.89
2022-08-18T02:24:58.207Z,19.91
2022-08-18T02:26:03.296Z,19.89
2022-08-18T02:27:06.359Z,19.88
2022-08-18T02:28:07.914Z,19.86
2022-08-18T02:29:09.453Z,19.83
2022-08-18T02:30:14.761Z,19.85
2022-08-18T02:31:22.513Z,19.83
2022-08-18T02:32:24.124Z,19.82
2022-08-18T02:33:28.376Z,19.83
2022-08-18T02:34:29.951Z,19.84
2022-08-18T02:35:31.525Z,19.84
2022-08-18T02:36:33.013Z,19.86
2022-08-18T02:37:34.702Z,19.86
2022-08-18T02:38:36.530Z,19.86
2022-08-18T02:39:38.553Z,19.85
2022-08-18T02:40:40.068Z,19.86
2022-08-18T02:41:41.912Z,19.88
2022-08-18T02:42:45.615Z,19.88
2022-08-18T02:43:47.235Z,19.88
2022-08-18T02:44:48.817Z,19.84
2022-08-18T02:45:50.612Z,19.85
2022-08-18T02:46:54.158Z,19.84
2022-08-18T02:47:56.596Z,19.82
2022-08-18T02:49:00.337Z,19.86
2022-08-18T02:50:01.844Z,19.87
2022-08-18T02:51:11.978Z,19.88
2022-08-18T02:52:13.476Z,19.88
2022-08-18T02:53:15.754Z,19.86
2022-08-18T02:54:18.890Z,19.85
2022-08-18T02:55:20.578Z,19.83
2022-08-18T02:56:40.504Z,19.80
2022-08-18T02:57:45.365Z,19.78
2022-08-18T02:58:47.708Z,19.77
2022-08-18T02:59:49.319Z,19.76
2022-08-18T03:00:51.488Z,19.75
2022-08-18T03:01:55.253Z,19.73
2022-08-18T03:02:56.960Z,19.73
2022-08-18T03:04:00.401Z,19.75
2022-08-18T03:05:01.940Z,19.75
2022-08-18T03:06:04.778Z,19.75
2022-08-18T03:07:07.726Z,19.76
2022-08-18T03:08:09.357Z,19.74
2022-08-18T03:09:12.061Z,19.74
2022-08-18T03:10:33.551Z,19.74
2022-08-18T03:11:36.439Z,19.76
2022-08-18T03:12:37.917Z,19.76
2022-08-18T03:13:39.422Z,19.74
2022-08-18T03:14:40.980Z,19.74
2022-08-18T03:15:42.486Z,19.73
2022-08-18T03:16:53.159Z,19.73
2022-08-18T03:17:56.572Z,19.73
2022-08-18T03:18:59.548Z,19.71
2022-08-18T03:20:01.068Z,19.71
2022-08-18T03:21:08.809Z,19.75
2022-08-18T03:22:27.471Z,19.74
2022-08-18T03:23:30.510Z,19.72
2022-08-18T03:24:32.704Z,19.71
2022-08-18T03:25:34.451Z,19.71
2022-08-18T03:26:36.131Z,19.72
2022-08-18T03:27:37.615Z,19.71
2022-08-18T03:28:40.936Z,19.71
2022-08-18T03:29:42.482Z,19.74
2022-08-18T03:30:44.236Z,19.78
2022-08-18T03:31:45.773Z,19.78
2022-08-18T03:32:47.278Z,19.76
2022-08-18T03:33:49.576Z,19.75
2022-08-18T03:34:51.133Z,19.75
2022-08-18T03:35:52.645Z,19.75
2022-08-18T03:36:54.230Z,19.76
2022-08-18T03:37:59.727Z,19.74
2022-08-18T03:39:10.004Z,19.73
2022-08-18T03:40:11.828Z,19.71
2022-08-18T03:41:16.309Z,19.69
2022-08-18T03:42:37.887Z,19.69
2022-08-18T03:43:51.379Z,19.68
2022-08-18T03:44:53.274Z,19.67
2022-08-18T03:45:55.230Z,19.68
2022-08-18T03:46:56.734Z,19.65
2022-08-18T03:47:58.470Z,19.68
2022-08-18T03:48:59.927Z,19.65
2022-08-18T03:50:01.543Z,19.59
2022-08-18T03:51:09.686Z,19.58
2022-08-18T03:52:11.301Z,19.56
2022-08-18T03:53:12.894Z,19.55
2022-08-18T03:54:16.172Z,19.58
2022-08-18T03:55:17.958Z,19.62
2022-08-18T03:56:23.591Z,19.61
2022-08-18T03:57:25.195Z,19.60
2022-08-18T03:58:27.273Z,19.61
2022-08-18T03:59:29.351Z,19.61
2022-08-18T04:00:32.131Z,19.63
2022-08-18T04:01:37.985Z,19.64
2022-08-18T04:02:40.257Z,19.63
2022-08-18T04:03:48.667Z,19.63
2022-08-18T04:04:51.262Z,19.65
2022-08-18T04:05:52.901Z,19.63
2022-08-18T04:07:00.201Z,19.62
2022-08-18T04:08:01.795Z,19.60
2022-08-18T04:09:06.642Z,19.61
2022-08-18T04:10:19.119Z,19.61
2022-08-18T04:11:21.830Z,19.62
2022-08-18T04:12:23.791Z,19.61
2022-08-18T04:13:25.431Z,19.62
2022-08-18T04:14:27.087Z,19.63
2022-08-18T04:15:28.649Z,19.62
2022-08-18T04:16:32.471Z,19.62
2022-08-18T04:17:34.070Z,19.59
2022-08-18T04:18:35.979Z,19.61
2022-08-18T04:19:37.485Z,19.57
2022-08-18T04:20:39.079Z,19.57
2022-08-18T04:22:02.037Z,19.58
2022-08-18T04:23:03.659Z,19.56
2022-08-18T04:24:06.297Z,19.55
2022-08-18T04:25:08.958Z,19.56
2022-08-18T04:26:11.915Z,19.60
2022-08-18T04:27:21.678Z,19.57
2022-08-18T04:28:23.558Z,19.53
2022-08-18T04:29:25.339Z,19.49
2022-08-18T04:30:27.622Z,19.51
2022-08-18T04:31:30.791Z,19.50
2022-08-18T04:32:32.303Z,19.51
2022-08-18T04:33:33.904Z,19.52
2022-08-18T04:34:35.768Z,19.50
2022-08-18T04:35:37.389Z,19.52
2022-08-18T04:36:39.231Z,19.55
2022-08-18T04:37:41.782Z,19.55
2022-08-18T04:38:43.794Z,19.55
2022-08-18T04:39:45.633Z,19.55
2022-08-18T04:40:47.370Z,19.56
2022-08-18T04:41:48.997Z,19.59
2022-08-18T04:42:50.551Z,19.59
2022-08-18T04:43:52.094Z,19.59
2022-08-18T04:44:53.657Z,19.59
2022-08-18T04:45:55.203Z,19.61
2022-08-18T04:46:56.840Z,19.62
2022-08-18T04:47:58.330Z,19.62
2022-08-18T04:49:00.197Z,19.63
2022-08-18T04:50:02.923Z,19.63
2022-08-18T04:52:36.907Z,19.65
2022-08-18T04:52:45.007Z,19.67
2022-08-18T04:53:47.551Z,19.68
2022-08-18T04:54:49.165Z,19.67
2022-08-18T04:55:53.588Z,19.71
2022-08-18T04:56:55.212Z,19.71
2022-08-18T04:57:56.843Z,19.73
2022-08-18T04:59:04.578Z,19.75
2022-08-18T05:00:07.358Z,19.79
2022-08-18T05:01:08.999Z,19.83
2022-08-18T05:02:14.760Z,19.84
2022-08-18T05:03:16.528Z,19.85
2022-08-18T05:04:18.049Z,19.85
2022-08-18T05:05:19.526Z,19.87
2022-08-18T05:06:23.021Z,19.91
2022-08-18T05:07:24.538Z,19.90
2022-08-18T05:08:26.581Z,19.87
2022-08-18T05:09:28.450Z,19.86
2022-08-18T05:10:30.159Z,19.89
2022-08-18T05:11:32.528Z,19.92
2022-08-18T05:12:34.142Z,19.94
2022-08-18T05:13:36.390Z,19.96
2022-08-18T05:14:42.083Z,19.97
2022-08-18T05:16:07.360Z,19.99
2022-08-18T05:17:05.354Z,20.00
2022-08-18T05:18:06.813Z,20.01
2022-08-18T05:19:13.334Z,20.02
2022-08-18T05:20:14.986Z,20.03
2022-08-18T05:21:21.019Z,20.05
2022-08-18T05:22:30.629Z,20.06
2022-08-18T05:23:32.765Z,20.07
2022-08-18T05:24:36.878Z,20.10
2022-08-18T05:25:39.221Z,20.12
2022-08-18T05:26:40.746Z,20.13
2022-08-18T05:27:42.813Z,20.15
2022-08-18T05:28:45.454Z,20.20
2022-08-18T05:29:51.296Z,20.29
2022-08-18T05:30:53.309Z,20.31
2022-08-18T05:31:56.432Z,20.40
2022-08-18T05:32:57.947Z,20.49
2022-08-18T05:33:59.911Z,20.54
2022-08-18T05:35:15.265Z,20.67
2022-08-18T05:36:28.920Z,20.82
2022-08-18T05:38:03.091Z,20.95
2022-08-18T05:39:16.785Z,20.97
2022-08-18T05:40:23.050Z,21.11
2022-08-18T05:41:28.677Z,21.21
2022-08-18T05:42:36.363Z,21.23
2022-08-18T05:43:51.098Z,21.33
2022-08-18T05:44:55.617Z,21.47
2022-08-18T05:45:59.467Z,21.62
2022-08-18T05:47:11.738Z,21.78
2022-08-18T05:48:14.193Z,21.86
2022-08-18T05:49:16.382Z,21.95
2022-08-18T05:50:20.195Z,22.07
2022-08-18T05:51:46.232Z,22.26
2022-08-18T05:53:01.706Z,22.30
2022-08-18T05:54:05.990Z,22.33
2022-08-18T05:55:17.591Z,22.44
2022-08-18T05:56:27.283Z,22.52
2022-08-18T05:57:34.127Z,22.68
2022-08-18T05:58:42.099Z,22.83
2022-08-18T05:59:45.302Z,22.79
2022-08-18T06:00:59.618Z,22.90
2022-08-18T06:02:10.999Z,22.98
2022-08-18T06:03:26.761Z,23.01
2022-08-18T06:04:55.537Z,23.03
2022-08-18T06:06:02.390Z,22.97
2022-08-18T06:07:07.681Z,22.97
2022-08-18T06:08:12.491Z,22.93
2022-08-18T06:09:22.023Z,22.97
2022-08-18T06:10:23.784Z,22.99
2022-08-18T06:11:25.444Z,22.88
2022-08-18T06:12:32.908Z,22.73
2022-08-18T06:13:42.813Z,22.59
2022-08-18T06:14:44.637Z,22.51
2022-08-18T06:15:55.267Z,22.52
2022-08-18T06:17:15.535Z,22.59
2022-08-18T06:18:25.366Z,22.65
2022-08-18T06:19:51.665Z,22.68
2022-08-18T06:21:15.022Z,22.65
2022-08-18T06:22:16.490Z,22.60
2022-08-18T06:23:26.959Z,22.58
2022-08-18T06:24:38.947Z,22.57
2022-08-18T06:26:08.424Z,22.58
2022-08-18T06:27:19.381Z,22.61
2022-08-18T06:28:21.284Z,22.66
2022-08-18T06:29:34.790Z,22.50
2022-08-18T06:30:42.146Z,22.52
2022-08-18T06:32:06.714Z,22.48
2022-08-18T06:33:22.041Z,22.51
2022-08-18T06:34:36.132Z,22.36
2022-08-18T06:35:46.031Z,22.36
2022-08-18T06:37:10.808Z,22.51
2022-08-18T06:38:18.194Z,22.61
2022-08-18T06:39:36.220Z,22.75
2022-08-18T06:40:37.815Z,22.89
2022-08-18T06:41:46.454Z,22.99
2022-08-18T06:42:50.803Z,23.19
2022-08-18T06:44:03.304Z,23.45
2022-08-18T06:45:12.345Z,23.60
2022-08-18T06:46:22.868Z,23.75
2022-08-18T06:47:30.103Z,23.93
2022-08-18T06:48:53.795Z,24.06
2022-08-18T06:50:18.095Z,24.27
2022-08-18T06:51:21.780Z,24.46
2022-08-18T06:52:32.636Z,24.52
2022-08-18T06:54:01.420Z,24.63
2022-08-18T06:55:10.963Z,24.75
2022-08-18T06:56:27.026Z,24.85
2022-08-18T06:57:35.169Z,24.94
2022-08-18T06:58:36.771Z,24.97
2022-08-18T06:59:38.315Z,25.12
2022-08-18T07:00:44.969Z,25.18
2022-08-18T07:02:01.461Z,25.18
2022-08-18T07:03:11.708Z,25.07
2022-08-18T07:04:31.375Z,25.08
2022-08-18T07:05:35.291Z,25.02
2022-08-18T07:06:36.791Z,25.06
2022-08-18T07:07:41.009Z,24.97
2022-08-18T07:08:45.726Z,24.96
2022-08-18T07:09:48.015Z,24.79
2022-08-18T07:10:52.632Z,24.65
2022-08-18T07:12:04.243Z,24.45
2022-08-18T07:13:16.327Z,24.41
2022-08-18T07:14:21.925Z,24.29
2022-08-18T07:15:24.661Z,24.29
2022-08-18T07:16:47.422Z,24.14
2022-08-18T07:17:50.620Z,23.98
2022-08-18T07:18:52.716Z,23.73
2022-08-18T07:20:06.735Z,23.76
2022-08-18T07:21:08.250Z,23.82
2022-08-18T07:22:16.906Z,23.86
2022-08-18T07:23:39.704Z,23.93
2022-08-18T07:24:44.343Z,24.02
2022-08-18T07:25:48.473Z,24.05
2022-08-18T07:27:14.036Z,24.06
2022-08-18T07:28:37.158Z,24.08
2022-08-18T07:29:59.915Z,24.08
2022-08-18T07:31:17.773Z,23.97
2022-08-18T07:32:22.817Z,23.94
2022-08-18T07:33:26.940Z,23.92
2022-08-18T07:34:53.123Z,23.94
2022-08-18T07:36:01.659Z,23.84
2022-08-18T07:37:13.603Z,23.73
2022-08-18T07:40:23.921Z,23.62
2022-08-18T07:41:33.811Z,23.54
2022-08-18T07:43:00.620Z,23.45
2022-08-18T07:44:33.394Z,23.32
2022-08-18T07:45:42.462Z,23.21
2022-08-18T07:46:43.952Z,23.08
2022-08-18T07:48:20.814Z,23.12
2022-08-18T07:49:35.328Z,23.07
2022-08-18T07:50:58.468Z,23.00
2022-08-18T07:52:36.091Z,22.95
2022-08-18T07:53:59.839Z,22.83
2022-08-18T07:55:26.977Z,22.81
2022-08-18T07:56:28.400Z,22.75
2022-08-18T07:57:42.610Z,22.75
2022-08-18T07:58:52.139Z,22.75
2022-08-18T08:00:10.424Z,22.81
2022-08-18T08:02:10.062Z,22.79
2022-08-18T08:03:33.099Z,22.77
2022-08-18T08:04:34.554Z,22.77
2022-08-18T08:05:42.019Z,22.81
2022-08-18T08:07:12.852Z,22.82
2022-08-18T08:08:25.804Z,22.73
2022-08-18T08:09:39.266Z,22.62
2022-08-18T08:11:03.951Z,22.65
2022-08-18T08:12:37.190Z,22.67
2022-08-18T08:14:12.593Z,22.59
2022-08-18T08:15:34.339Z,22.55
2022-08-18T08:17:04.583Z,22.54
2022-08-18T08:18:17.958Z,22.63
2022-08-18T08:19:42.415Z,22.60
2022-08-18T08:20:53.690Z,22.50
2022-08-18T08:22:05.559Z,22.64
2022-08-18T08:23:34.907Z,22.53
2022-08-18T08:24:53.171Z,22.46
2022-08-18T08:26:20.900Z,22.36
2022-08-18T08:27:57.890Z,22.34
2022-08-18T08:29:08.767Z,22.39
2022-08-18T08:30:18.506Z,22.42
2022-08-18T08:31:48.034Z,22.41
2022-08-18T08:33:13.392Z,22.39
2022-08-18T08:34:29.652Z,22.23
2022-08-18T08:35:49.146Z,22.24
2022-08-18T08:37:00.929Z,22.27
2022-08-18T08:38:39.241Z,22.39
2022-08-18T08:39:42.616Z,22.28
2022-08-18T08:40:54.208Z,22.23
2022-08-18T08:42:30.845Z,22.24
2022-08-18T08:43:37.716Z,22.27
2022-08-18T08:44:58.769Z,22.31
2022-08-18T08:46:11.582Z,22.37
2022-08-18T08:47:27.335Z,22.41
2022-08-18T08:48:32.773Z,22.51
2022-08-18T08:50:00.477Z,22.51
2022-08-18T08:51:39.548Z,22.53
2022-08-18T08:52:50.160Z,22.61
2022-08-18T08:54:02.249Z,22.73
2022-08-18T08:55:17.009Z,22.79
2022-08-18T08:56:21.953Z,22.87
2022-08-18T08:57:39.237Z,22.98
2022-08-18T08:58:48.269Z,22.95
2022-08-18T08:59:51.539Z,23.16
2022-08-18T09:00:56.190Z,23.46
2022-08-18T09:02:06.885Z,23.54
2022-08-18T09:03:30.308Z,23.68
2022-08-18T09:05:01.180Z,23.91
2022-08-18T09:06:38.925Z,24.04
2022-08-18T09:07:46.715Z,23.98
2022-08-18T09:09:12.503Z,24.08
2022-08-18T09:10:20.218Z,24.24
2022-08-18T09:11:49.079Z,24.16
2022-08-18T09:13:28.983Z,24.30
2022-08-18T09:14:58.839Z,24.17
2022-08-18T09:16:42.130Z,24.11
2022-08-18T09:18:14.770Z,24.31
2022-08-18T09:19:53.227Z,24.43
2022-08-18T09:21:33.689Z,24.50
2022-08-18T09:22:53.517Z,24.64
2022-08-18T09:24:06.999Z,24.57
2022-08-18T09:25:38.190Z,24.69
2022-08-18T09:26:50.403Z,24.77
2022-08-18T09:28:11.719Z,24.67
2022-08-18T09:29:45.595Z,24.71
2022-08-18T09:31:02.399Z,24.77
2022-08-18T09:32:39.802Z,24.44
2022-08-18T09:34:11.246Z,24.78
2022-08-18T09:35:52.095Z,24.77
2022-08-18T09:37:12.180Z,24.63
2022-08-18T09:38:23.011Z,24.82
2022-08-18T09:39:54.472Z,24.61
2022-08-18T09:41:08.996Z,24.68
2022-08-18T09:42:16.446Z,24.72
2022-08-18T09:43:39.987Z,24.81
2022-08-18T09:44:42.821Z,24.96
2022-08-18T09:45:47.173Z,24.78
2022-08-18T09:46:52.628Z,25.01
2022-08-18T09:47:54.084Z,25.25
2022-08-18T09:49:24.237Z,25.44
2022-08-18T09:50:28.276Z,25.59
2022-08-18T09:53:14.684Z,25.84
2022-08-18T09:54:31.066Z,25.95
2022-08-18T09:55:41.166Z,25.90
2022-08-18T09:57:04.243Z,25.89
2022-08-18T09:58:22.953Z,25.90
2022-08-18T09:59:34.532Z,25.90
2022-08-18T10:00:36.174Z,25.72
2022-08-18T10:01:41.490Z,25.78
2022-08-18T10:02:48.616Z,25.76
2022-08-18T10:04:15.129Z,25.86
2022-08-18T10:05:16.565Z,25.71
2022-08-18T10:06:19.185Z,25.91
2022-08-18T10:07:27.988Z,26.16
2022-08-18T10:08:42.769Z,26.08
2022-08-18T10:09:57.445Z,26.19
2022-08-18T10:11:20.606Z,25.99
2022-08-18T10:12:32.166Z,25.81
2022-08-18T10:13:40.981Z,25.89
2022-08-18T10:14:57.916Z,25.82
2022-08-18T10:16:10.243Z,26.05
2022-08-18T10:17:27.822Z,26.13
2022-08-18T10:19:09.729Z,26.23
2022-08-18T10:20:30.499Z,26.22
2022-08-18T10:21:54.998Z,26.14
2022-08-18T10:22:57.287Z,25.86
2022-08-18T10:24:32.212Z,25.84
2022-08-18T10:25:39.851Z,25.76
2022-08-18T10:26:54.520Z,25.71
2022-08-18T10:27:57.315Z,25.75
2022-08-18T10:29:03.857Z,25.86
2022-08-18T10:30:34.493Z,25.86
2022-08-18T10:31:56.290Z,25.77
2022-08-18T10:33:03.107Z,25.52
2022-08-18T10:34:19.241Z,25.43
2022-08-18T10:35:36.350Z,25.46
2022-08-18T10:37:00.396Z,25.62
2022-08-18T10:38:16.195Z,25.68
2022-08-18T10:39:42.813Z,25.72
2022-08-18T10:40:58.038Z,25.70
2022-08-18T10:42:11.823Z,25.82
2022-08-18T10:44:55.668Z,26.19
2022-08-18T10:46:24.242Z,26.20
2022-08-18T10:47:33.686Z,26.35
2022-08-18T10:48:35.660Z,26.46
2022-08-18T10:49:47.887Z,26.39
2022-08-18T10:50:51.737Z,26.43
2022-08-18T10:52:13.251Z,26.51
2022-08-18T10:53:44.501Z,26.34
2022-08-18T10:56:46.348Z,26.31
2022-08-18T10:58:01.087Z,26.32
2022-08-18T10:59:28.075Z,26.58
2022-08-18T11:00:42.716Z,26.94
2022-08-18T11:01:53.258Z,26.94
2022-08-18T11:04:38.531Z,27.11
2022-08-18T11:05:41.369Z,27.07
2022-08-18T11:06:49.041Z,27.09
2022-08-18T11:07:58.639Z,27.01
2022-08-18T11:09:03.681Z,27.08
2022-08-18T11:10:57.810Z,26.99
2022-08-18T11:11:53.222Z,27.06
2022-08-18T11:13:26.140Z,27.24
2022-08-18T11:14:52.485Z,27.20
2022-08-18T11:16:10.176Z,27.11
2022-08-18T11:17:12.034Z,26.96
2022-08-18T11:18:22.860Z,27.06
2022-08-18T11:19:26.012Z,26.91
2022-08-18T11:20:31.195Z,27.05
2022-08-18T11:21:41.860Z,27.08
2022-08-18T11:22:55.320Z,27.10
2022-08-18T11:24:04.269Z,27.21
2022-08-18T11:25:41.673Z,27.41
2022-08-18T11:26:45.526Z,27.54
2022-08-18T11:27:55.045Z,27.70
2022-08-18T11:28:57.811Z,27.78
2022-08-18T11:30:01.108Z,27.81
2022-08-18T11:31:02.865Z,27.59
2022-08-18T11:32:23.978Z,27.66
2022-08-18T11:33:25.577Z,27.73
2022-08-18T11:34:41.313Z,27.85
2022-08-18T11:35:57.160Z,27.64
2022-08-18T11:37:02.931Z,27.59
2022-08-18T11:38:12.881Z,27.34
2022-08-18T11:39:14.585Z,27.18
2022-08-18T11:40:51.954Z,27.40
2022-08-18T11:41:48.704Z,27.52
2022-08-18T11:43:06.908Z,27.52
2022-08-18T11:44:20.168Z,27.62
2022-08-18T11:45:24.977Z,27.60
2022-08-18T11:46:37.151Z,27.67
2022-08-18T11:47:38.961Z,27.70
2022-08-18T11:48:50.969Z,27.59
2022-08-18T11:50:12.671Z,27.41
2022-08-18T11:51:23.599Z,27.61
2022-08-18T11:54:03.630Z,27.90
2022-08-18T11:56:38.902Z,27.98
2022-08-18T11:57:50.497Z,28.11
2022-08-18T11:58:57.069Z,28.26
2022-08-18T12:00:00.606Z,28.28
2022-08-18T12:01:03.011Z,28.36
2022-08-18T12:02:04.914Z,28.39
2022-08-18T12:03:28.871Z,28.36
2022-08-18T12:04:39.708Z,28.19
2022-08-18T12:05:56.026Z,28.35
2022-08-18T12:07:13.639Z,28.17
2022-08-18T12:08:56.473Z,27.89
2022-08-18T12:10:29.830Z,27.66
2022-08-18T12:11:35.412Z,27.81
2022-08-18T12:12:45.957Z,27.93
2022-08-18T12:13:57.412Z,28.00
2022-08-18T12:15:17.630Z,28.09
2022-08-18T12:16:41.193Z,28.29
2022-08-18T12:17:52.667Z,28.40
2022-08-18T12:18:54.643Z,28.36
2022-08-18T12:19:56.138Z,28.37
2022-08-18T12:20:59.449Z,28.34
2022-08-18T12:22:23.865Z,28.30
2022-08-18T12:23:25.430Z,28.20
2022-08-18T12:24:36.521Z,28.28
2022-08-18T12:27:01.013Z,28.25
2022-08-18T12:28:02.738Z,28.19
2022-08-18T12:29:04.264Z,28.14
2022-08-18T12:30:16.423Z,28.28
2022-08-18T12:31:18.387Z,28.32
2022-08-18T12:33:48.357Z,28.44
2022-08-18T12:35:09.101Z,28.44
2022-08-18T12:36:11.396Z,28.52
2022-08-18T12:37:58.521Z,28.62
2022-08-18T12:38:52.243Z,28.36
2022-08-18T12:39:59.202Z,28.21
2022-08-18T12:41:01.480Z,28.12
2022-08-18T12:42:04.905Z,28.05
2022-08-18T12:43:07.664Z,28.08
2022-08-18T12:44:12.993Z,27.96
2022-08-18T12:45:15.123Z,28.06
2022-08-18T12:46:16.648Z,28.01
2022-08-18T12:47:26.394Z,28.03
2022-08-18T12:48:32.959Z,28.07
2022-08-18T12:49:36.286Z,28.26
2022-08-18T12:50:50.266Z,28.23
2022-08-18T12:51:57.669Z,28.23
2022-08-18T12:53:00.281Z,28.22
2022-08-18T12:54:02.073Z,28.45
2022-08-18T12:55:05.472Z,28.54
2022-08-18T12:56:16.804Z,28.42
2022-08-18T12:57:51.786Z,28.43
2022-08-18T12:58:46.043Z,28.45
2022-08-18T12:59:47.648Z,28.41
2022-08-18T13:00:49.436Z,28.43
2022-08-18T13:01:58.567Z,28.50
2022-08-18T13:03:01.463Z,28.66
2022-08-18T13:04:12.576Z,28.81
2022-08-18T13:05:15.545Z,28.68
2022-08-18T13:06:17.502Z,28.30
2022-08-18T13:07:20.157Z,28.46
2022-08-18T13:08:30.764Z,28.66
2022-08-18T13:09:52.920Z,28.69
2022-08-18T13:10:58.116Z,28.81
2022-08-18T13:12:00.045Z,28.70
2022-08-18T13:13:01.715Z,28.41
2022-08-18T13:14:08.873Z,28.70
2022-08-18T13:15:11.231Z,28.81
2022-08-18T13:16:21.882Z,28.81
2022-08-18T13:17:41.434Z,28.91
2022-08-18T13:18:46.236Z,28.93
2022-08-18T13:19:47.786Z,28.89
2022-08-18T13:20:51.401Z,28.81
2022-08-18T13:21:53.287Z,28.97
2022-08-18T13:22:58.626Z,28.89
2022-08-18T13:24:00.282Z,28.95
2022-08-18T13:25:03.602Z,28.99
2022-08-18T13:26:08.053Z,28.71
2022-08-18T13:27:18.420Z,28.71
2022-08-18T13:28:25.042Z,28.58
2022-08-18T13:29:31.901Z,28.68
2022-08-18T13:30:35.410Z,28.84
2022-08-18T13:31:38.116Z,28.88
2022-08-18T13:32:58.439Z,29.07
2022-08-18T13:34:01.409Z,29.18
2022-08-18T13:35:13.307Z,29.39
2022-08-18T13:36:15.253Z,29.53
2022-08-18T13:37:16.742Z,29.63
2022-08-18T13:38:27.234Z,29.70
2022-08-18T13:39:33.823Z,29.67
2022-08-18T13:40:37.756Z,29.58
2022-08-18T13:41:49.664Z,29.33
2022-08-18T13:42:51.764Z,29.38
2022-08-18T13:43:53.242Z,29.32
2022-08-18T13:44:58.608Z,29.03
2022-08-18T13:46:24.427Z,28.99
2022-08-18T13:47:31.607Z,29.19
2022-08-18T13:48:41.630Z,29.41
2022-08-18T13:49:43.524Z,29.68
2022-08-18T13:51:01.859Z,29.65
2022-08-18T13:52:05.596Z,29.80
2022-08-18T13:53:16.815Z,29.68
2022-08-18T13:54:31.447Z,29.64
2022-08-18T13:55:35.383Z,29.79
2022-08-18T13:56:36.989Z,29.84
2022-08-18T13:57:42.564Z,29.92
2022-08-18T13:58:53.641Z,30.01
2022-08-18T13:59:55.371Z,30.24
2022-08-18T14:01:39.731Z,30.19
2022-08-18T14:02:27.798Z,30.27
2022-08-18T14:03:42.770Z,30.23
2022-08-18T14:04:48.623Z,30.35
2022-08-18T14:05:57.606Z,30.47
2022-08-18T14:07:09.204Z,30.50
2022-08-18T14:08:11.735Z,30.39
2022-08-18T14:09:27.900Z,30.41
2022-08-18T14:10:38.314Z,30.23
2022-08-18T14:11:41.804Z,30.30
2022-08-18T14:12:44.697Z,30.11
2022-08-18T14:13:48.880Z,30.25
2022-08-18T14:14:52.743Z,30.34
2022-08-18T14:15:56.189Z,30.47
2022-08-18T14:16:57.830Z,30.59
2022-08-18T14:17:59.356Z,30.54
2022-08-18T14:19:01.584Z,30.49
2022-08-18T14:20:05.893Z,30.39
2022-08-18T14:21:12.432Z,30.25
2022-08-18T14:22:14.628Z,30.36
2022-08-18T14:23:22.052Z,30.26
2022-08-18T14:24:26.750Z,30.31
2022-08-18T14:25:28.473Z,30.34
2022-08-18T14:26:30.028Z,30.44
2022-08-18T14:27:37.265Z,30.38
2022-08-18T14:28:41.265Z,30.32
2022-08-18T14:29:47.061Z,30.28
2022-08-18T14:30:50.650Z,30.27
2022-08-18T14:31:55.844Z,30.17
2022-08-18T14:32:59.327Z,30.11
2022-08-18T14:34:03.937Z,30.16
2022-08-18T14:36:04.664Z,30.05
2022-08-18T14:36:30.536Z,29.94
2022-08-18T14:37:33.791Z,29.75
2022-08-18T14:38:36.126Z,29.64
2022-08-18T14:39:37.712Z,29.68
2022-08-18T14:40:41.771Z,29.72
2022-08-18T14:41:54.625Z,29.62
2022-08-18T14:42:58.050Z,29.49
2022-08-18T14:44:12.327Z,29.33
2022-08-18T14:45:17.554Z,29.10
2022-08-18T14:46:30.507Z,28.99
2022-08-18T14:47:34.381Z,28.96
2022-08-18T14:48:38.998Z,29.04
2022-08-18T14:49:48.063Z,28.94
2022-08-18T14:50:53.316Z,28.84
2022-08-18T14:51:56.880Z,28.95
2022-08-18T14:52:59.092Z,28.94
2022-08-18T14:54:01.560Z,28.79
2022-08-18T14:55:03.815Z,28.78
2022-08-18T14:56:05.807Z,28.86
2022-08-18T14:57:07.817Z,28.95
2022-08-18T14:58:11.080Z,29.10
2022-08-18T14:59:12.562Z,29.21
2022-08-18T15:00:17.676Z,29.29
2022-08-18T15:01:23.011Z,29.37
2022-08-18T15:02:24.889Z,29.32